Time;durP1;ratioP1;P1;durP2;ratioP2;P2;SDS_P1;SDS_P2;PMS_P1;PMS_P2;Temp;Humidity;BMP_temperature;BMP_pressure;BME280_temperature;BME280_humidity;BME280_pressure;Samples;Min_cycle;Max_cycle;Signal;HPM_P1;HPM_P2
2021/11/30 00:00:13;;;;;;;11.65;3.70;;;4.80;99.90;;;;;;5049416;28;20069;-78
2021/11/30 00:02:38;;;;;;;11.88;4.95;;;4.80;99.90;;;;;;5054712;28;20435;-78
2021/11/30 00:05:06;;;;;;;15.10;4.75;;;4.80;99.90;;;;;;5048221;28;20040;-79
2021/11/30 00:07:32;;;;;;;14.27;5.45;;;4.80;99.90;;;;;;5046813;28;20028;-78
2021/11/30 00:12:34;;;;;;;19.55;6.00;;;4.90;99.90;;;;;;5053315;28;20120;-78
2021/11/30 00:15:00;;;;;;;16.00;6.05;;;4.90;99.90;;;;;;5053273;28;20534;-78
2021/11/30 00:17:26;;;;;;;20.70;5.68;;;4.90;99.90;;;;;;5049442;28;20045;-79
2021/11/30 00:19:52;;;;;;;13.88;5.55;;;4.90;99.90;;;;;;5049844;28;20481;-78
2021/11/30 00:22:21;;;;;;;10.60;5.40;;;4.90;99.90;;;;;;5041498;28;20033;-78
2021/11/30 00:24:47;;;;;;;14.85;6.15;;;4.90;99.90;;;;;;5047315;28;20439;-78
2021/11/30 00:27:13;;;;;;;14.88;5.93;;;4.90;99.90;;;;;;5039985;28;20040;-78
2021/11/30 00:29:38;;;;;;;16.15;6.72;;;5.00;99.90;;;;;;5045863;28;20021;-78
2021/11/30 00:32:05;;;;;;;15.63;7.07;;;5.00;99.90;;;;;;5047459;28;20044;-78
2021/11/30 00:34:31;;;;;;;15.73;5.70;;;5.00;99.90;;;;;;5049669;28;20020;-78
2021/11/30 00:36:57;;;;;;;14.50;4.97;;;5.00;99.90;;;;;;5053935;28;20465;-78
2021/11/30 00:39:22;;;;;;;11.43;4.93;;;5.00;99.90;;;;;;5048844;28;20041;-78
2021/11/30 00:41:55;;;;;;;11.38;4.78;;;5.00;99.90;;;;;;5052091;28;20033;-78
2021/11/30 00:44:26;;;;;;;10.98;4.22;;;5.00;99.90;;;;;;5051234;28;20033;-78
2021/11/30 00:46:54;;;;;;;9.15;3.67;;;5.00;99.90;;;;;;5052207;28;20024;-78
2021/11/30 00:49:20;;;;;;;12.75;4.97;;;5.00;99.90;;;;;;5049812;28;20048;-78
2021/11/30 00:51:47;;;;;;;10.73;3.67;;;5.00;99.90;;;;;;5050479;28;20148;-76
2021/11/30 00:54:14;;;;;;;8.55;3.72;;;4.90;99.90;;;;;;5051343;28;20028;-77
2021/11/30 00:56:42;;;;;;;9.57;3.45;;;4.90;99.90;;;;;;5051919;28;20056;-78
2021/11/30 00:59:08;;;;;;;11.80;4.05;;;4.90;99.90;;;;;;5053667;28;20017;-78
2021/11/30 01:01:34;;;;;;;12.50;4.07;;;5.00;99.90;;;;;;5049429;28;20374;-78
2021/11/30 01:04:00;;;;;;;8.90;3.75;;;4.90;99.90;;;;;;5053490;28;20040;-78
2021/11/30 01:06:26;;;;;;;10.43;3.97;;;4.90;99.90;;;;;;5050522;28;20128;-78
2021/11/30 01:08:52;;;;;;;10.70;3.50;;;4.90;99.90;;;;;;5046803;28;20136;-78
2021/11/30 01:11:18;;;;;;;14.68;3.80;;;4.90;99.90;;;;;;5049430;28;20418;-78
2021/11/30 01:13:43;;;;;;;10.98;4.57;;;4.90;99.90;;;;;;5047829;28;20029;-79
2021/11/30 01:16:09;;;;;;;18.65;4.68;;;4.80;99.90;;;;;;5048482;28;20419;-79
2021/11/30 01:18:35;;;;;;;16.98;4.60;;;4.80;99.90;;;;;;5045602;28;20124;-79
2021/11/30 01:21:02;;;;;;;16.38;4.95;;;4.80;99.90;;;;;;5047584;28;20400;-77
2021/11/30 01:23:32;;;;;;;15.88;5.10;;;4.80;99.90;;;;;;5049868;28;20021;-78
2021/11/30 01:26:01;;;;;;;18.08;5.20;;;4.80;99.90;;;;;;5047932;28;20031;-78
2021/11/30 01:28:27;;;;;;;19.42;4.78;;;4.80;99.90;;;;;;5050851;28;20420;-78
2021/11/30 01:30:53;;;;;;;23.75;4.95;;;4.70;99.90;;;;;;5048457;28;20032;-78
2021/11/30 01:33:19;;;;;;;19.13;5.90;;;4.70;99.90;;;;;;5042468;28;20446;-78
2021/11/30 01:35:46;;;;;;;24.90;5.82;;;4.70;99.90;;;;;;5048744;28;20072;-79
2021/11/30 01:38:13;;;;;;;19.92;5.88;;;4.60;99.90;;;;;;5047411;28;20378;-79
2021/11/30 01:40:39;;;;;;;18.30;5.07;;;4.60;99.90;;;;;;5050298;28;20523;-78
2021/11/30 01:43:06;;;;;;;30.13;6.53;;;4.50;99.90;;;;;;5038236;28;20033;-79
2021/11/30 01:50:57;;;;;;;17.65;5.50;;;4.40;99.90;;;;;;5043473;28;20061;-78
2021/11/30 01:53:23;;;;;;;20.10;6.32;;;4.30;99.90;;;;;;5037809;28;20032;-78
2021/11/30 01:55:49;;;;;;;15.07;4.82;;;4.30;99.90;;;;;;5041997;28;20401;-79
2021/11/30 01:58:15;;;;;;;17.65;5.35;;;4.20;99.90;;;;;;5047734;28;20417;-78
2021/11/30 02:00:43;;;;;;;19.13;5.55;;;4.20;99.90;;;;;;5040979;28;20049;-78
2021/11/30 02:03:08;;;;;;;18.23;5.25;;;4.10;99.90;;;;;;5047736;28;20021;-79
2021/11/30 02:05:37;;;;;;;15.77;5.45;;;4.10;99.90;;;;;;5039998;28;20075;-78
2021/11/30 02:08:03;;;;;;;12.82;4.82;;;4.10;99.90;;;;;;5039124;28;20018;-79
2021/11/30 02:10:29;;;;;;;16.73;5.20;;;4.10;99.90;;;;;;5042379;28;20025;-78
2021/11/30 02:12:55;;;;;;;13.77;5.22;;;4.10;99.90;;;;;;5043716;28;20128;-78
2021/11/30 02:15:23;;;;;;;13.45;4.40;;;4.10;99.90;;;;;;5044500;28;20532;-79
2021/11/30 02:17:50;;;;;;;16.30;5.80;;;4.10;99.90;;;;;;5049420;28;20477;-78
2021/11/30 02:20:16;;;;;;;13.80;4.68;;;4.10;99.90;;;;;;5048282;28;20496;-78
2021/11/30 02:22:47;;;;;;;14.32;5.53;;;4.10;99.90;;;;;;5048802;28;20033;-78
2021/11/30 02:25:13;;;;;;;13.02;4.63;;;4.10;99.90;;;;;;5037695;28;20060;-78
2021/11/30 02:27:38;;;;;;;12.48;4.93;;;4.10;99.90;;;;;;5046368;28;20021;-78
2021/11/30 02:30:04;;;;;;;13.88;5.82;;;4.10;99.90;;;;;;5043568;28;20387;-79
2021/11/30 02:32:30;;;;;;;10.60;4.80;;;4.10;99.90;;;;;;5041103;28;20028;-78
2021/11/30 02:34:55;;;;;;;10.35;5.13;;;4.10;99.90;;;;;;5044919;28;20049;-78
2021/11/30 02:37:25;;;;;;;12.93;5.85;;;4.10;99.90;;;;;;5040248;28;20029;-78
2021/11/30 02:39:51;;;;;;;16.13;6.60;;;4.10;99.90;;;;;;5049201;28;20435;-78
2021/11/30 02:42:16;;;;;;;14.50;5.93;;;4.10;99.90;;;;;;5044522;28;20028;-78
2021/11/30 02:44:43;;;;;;;15.38;6.82;;;4.10;99.90;;;;;;5050833;28;20029;-78
2021/11/30 02:47:10;;;;;;;12.23;6.38;;;4.10;99.90;;;;;;5050495;28;20377;-79
2021/11/30 02:49:39;;;;;;;13.20;7.40;;;4.10;99.90;;;;;;5045328;28;20090;-78
2021/11/30 02:52:17;;;;;;;14.55;8.30;;;4.10;99.90;;;;;;5046285;28;20032;-79
2021/11/30 02:54:45;;;;;;;18.65;8.48;;;4.10;99.90;;;;;;5043178;28;20384;-79
2021/11/30 02:57:13;;;;;;;13.82;9.57;;;4.10;99.90;;;;;;5048840;28;20107;-78
2021/11/30 02:59:42;;;;;;;13.15;8.48;;;4.10;99.90;;;;;;5045550;28;20493;-78
2021/11/30 03:02:19;;;;;;;19.33;9.40;;;4.10;99.90;;;;;;5036668;28;20048;-79
2021/11/30 03:04:47;;;;;;;18.98;11.00;;;4.10;99.90;;;;;;5038136;28;20066;-78
2021/11/30 03:07:16;;;;;;;17.55;11.30;;;4.10;99.90;;;;;;5045276;28;22428;-78
2021/11/30 03:09:42;;;;;;;21.48;10.65;;;4.10;99.90;;;;;;5043354;28;20477;-78
2021/11/30 03:12:08;;;;;;;16.73;11.43;;;4.10;99.90;;;;;;5050224;28;20025;-78
2021/11/30 03:14:34;;;;;;;20.92;12.48;;;4.20;99.90;;;;;;5041326;28;20072;-78
2021/11/30 03:17:00;;;;;;;20.50;13.65;;;4.20;99.90;;;;;;5040517;28;20053;-78
2021/11/30 03:19:28;;;;;;;18.20;13.02;;;4.20;99.90;;;;;;5049753;28;20044;-79
2021/11/30 03:21:54;;;;;;;20.30;13.40;;;4.30;99.90;;;;;;5048885;28;20021;-77
2021/11/30 03:24:20;;;;;;;24.98;14.73;;;4.30;99.90;;;;;;5041550;28;20048;-78
2021/11/30 03:26:46;;;;;;;19.05;14.35;;;4.30;99.90;;;;;;5039874;28;20474;-78
2021/11/30 03:29:12;;;;;;;22.83;15.55;;;4.30;99.90;;;;;;5045752;28;20040;-78
2021/11/30 03:34:24;;;;;;;26.05;15.88;;;4.40;99.90;;;;;;5047305;28;20052;-78
2021/11/30 03:36:52;;;;;;;24.27;17.08;;;4.40;99.90;;;;;;5050579;28;20036;-78
2021/11/30 03:39:20;;;;;;;22.52;15.73;;;4.50;99.90;;;;;;5048901;28;20168;-78
2021/11/30 03:41:48;;;;;;;20.58;15.82;;;4.40;99.90;;;;;;5048074;28;20021;-78
2021/11/30 03:44:15;;;;;;;20.40;15.93;;;4.50;99.90;;;;;;5034273;28;20508;-78
2021/11/30 03:46:40;;;;;;;22.33;16.25;;;4.50;99.90;;;;;;5046731;28;20033;-78
2021/11/30 03:49:08;;;;;;;22.35;16.90;;;4.60;99.90;;;;;;5049696;28;20036;-78
2021/11/30 03:51:34;;;;;;;23.17;17.90;;;4.60;99.90;;;;;;5049543;28;20477;-78
2021/11/30 03:54:00;;;;;;;23.25;15.95;;;4.60;99.90;;;;;;5046111;28;20497;-78
2021/11/30 03:56:26;;;;;;;20.50;16.10;;;4.60;99.90;;;;;;5048901;28;20151;-78
2021/11/30 03:58:53;;;;;;;25.20;17.67;;;4.60;99.90;;;;;;5049812;28;20032;-78
2021/11/30 04:01:18;;;;;;;26.88;17.90;;;4.70;99.90;;;;;;5047491;28;20024;-78
2021/11/30 04:03:44;;;;;;;25.15;18.20;;;4.70;99.90;;;;;;5048976;28;20021;-78
2021/11/30 04:06:10;;;;;;;23.42;15.85;;;4.80;99.90;;;;;;5045167;28;20086;-78
2021/11/30 04:08:38;;;;;;;23.23;16.75;;;4.80;99.90;;;;;;5045545;28;20037;-78
2021/11/30 04:11:05;;;;;;;25.88;18.35;;;4.90;99.90;;;;;;5049353;28;20033;-78
2021/11/30 04:13:31;;;;;;;23.08;16.85;;;5.00;99.90;;;;;;5045297;28;20033;-78
2021/11/30 04:15:57;;;;;;;27.00;18.90;;;5.00;99.90;;;;;;5049661;28;20029;-79
2021/11/30 04:18:24;;;;;;;25.85;18.30;;;5.00;99.90;;;;;;5050366;28;20051;-79
2021/11/30 04:20:50;;;;;;;26.25;19.17;;;5.10;99.90;;;;;;5047626;28;20036;-80
2021/11/30 04:23:15;;;;;;;22.95;17.75;;;5.20;99.90;;;;;;5041029;28;20033;-78
2021/11/30 04:25:41;;;;;;;24.73;18.27;;;5.20;99.90;;;;;;5049567;28;20083;-78
2021/11/30 04:28:06;;;;;;;26.88;17.33;;;5.20;99.90;;;;;;5048405;28;20451;-79
2021/11/30 04:30:32;;;;;;;22.40;16.77;;;5.30;99.90;;;;;;5047762;28;20540;-79
2021/11/30 04:32:58;;;;;;;18.05;13.57;;;5.30;99.90;;;;;;5050110;28;20025;-79
2021/11/30 04:35:25;;;;;;;16.45;12.23;;;5.40;99.90;;;;;;5048045;28;20507;-78
2021/11/30 04:37:51;;;;;;;12.70;10.18;;;5.50;99.90;;;;;;5050560;28;20027;-79
2021/11/30 04:40:16;;;;;;;11.30;8.93;;;5.60;99.90;;;;;;5045709;28;20053;-77
2021/11/30 04:42:43;;;;;;;11.63;8.80;;;5.70;99.90;;;;;;5045154;28;20083;-78
2021/11/30 04:48:04;;;;;;;10.45;7.97;;;5.90;99.90;;;;;;5026932;28;20080;-77
2021/11/30 04:50:34;;;;;;;9.25;7.70;;;6.00;99.90;;;;;;5043815;28;20029;-78
2021/11/30 04:53:01;;;;;;;8.30;6.63;;;6.10;99.90;;;;;;5046102;28;20079;-77
2021/11/30 04:55:30;;;;;;;8.13;6.05;;;6.10;99.90;;;;;;5051906;28;20476;-77
2021/11/30 04:58:01;;;;;;;7.63;5.90;;;6.10;99.90;;;;;;5051774;28;20060;-77
2021/11/30 05:00:28;;;;;;;8.23;6.63;;;6.20;99.90;;;;;;5041889;28;20613;-78
2021/11/30 05:02:54;;;;;;;6.93;5.20;;;6.20;99.90;;;;;;5043550;28;20032;-77
2021/11/30 05:05:20;;;;;;;6.78;5.60;;;6.30;99.90;;;;;;5047473;28;20029;-77
2021/11/30 05:07:46;;;;;;;7.55;5.78;;;6.30;99.90;;;;;;5052877;28;20037;-77
2021/11/30 05:10:17;;;;;;;7.07;5.55;;;6.30;99.90;;;;;;5052313;28;20037;-77
2021/11/30 05:12:43;;;;;;;6.88;5.63;;;6.40;99.90;;;;;;5051622;28;20043;-77
2021/11/30 05:15:10;;;;;;;5.88;4.90;;;6.40;99.90;;;;;;5049341;28;20464;-77
2021/11/30 05:17:35;;;;;;;6.88;5.75;;;6.40;99.90;;;;;;5052866;28;20139;-77
2021/11/30 05:20:02;;;;;;;8.05;5.80;;;6.50;99.90;;;;;;5045788;28;20540;-77
2021/11/30 05:22:28;;;;;;;6.18;5.35;;;6.50;99.90;;;;;;5046055;28;20036;-76
2021/11/30 05:24:54;;;;;;;5.75;4.63;;;6.50;99.90;;;;;;5049765;28;20162;-76
2021/11/30 05:27:20;;;;;;;6.30;4.88;;;6.50;99.90;;;;;;5050880;28;20479;-77
2021/11/30 05:29:46;;;;;;;7.20;5.50;;;6.60;99.90;;;;;;5048216;28;20855;-77
2021/11/30 05:32:11;;;;;;;6.38;4.80;;;6.60;99.90;;;;;;5049290;28;20120;-76
2021/11/30 05:34:37;;;;;;;5.38;4.50;;;6.60;99.90;;;;;;5048951;28;20104;-76
2021/11/30 05:37:02;;;;;;;6.85;4.97;;;6.70;99.90;;;;;;5047254;28;20040;-76
2021/11/30 05:39:28;;;;;;;6.65;5.32;;;6.70;99.90;;;;;;5043429;28;20056;-77
2021/11/30 05:41:54;;;;;;;7.25;5.35;;;6.70;99.90;;;;;;5036769;28;20029;-77
2021/11/30 05:44:19;;;;;;;7.20;5.32;;;6.80;99.90;;;;;;5048168;28;20032;-76
2021/11/30 05:46:46;;;;;;;6.90;5.75;;;6.80;99.90;;;;;;5051124;28;20055;-77
2021/11/30 05:49:12;;;;;;;8.57;5.85;;;6.80;99.90;;;;;;5049574;28;20053;-77
2021/11/30 05:51:37;;;;;;;7.32;5.95;;;6.80;99.90;;;;;;5048283;28;20629;-77
2021/11/30 05:54:03;;;;;;;7.82;5.45;;;6.80;99.90;;;;;;5051991;28;20036;-77
2021/11/30 05:56:30;;;;;;;9.38;6.30;;;6.90;99.90;;;;;;5043956;28;20461;-77
2021/11/30 05:58:57;;;;;;;6.72;5.75;;;6.90;99.90;;;;;;5048917;28;20032;-77
2021/11/30 06:01:27;;;;;;;7.70;5.65;;;6.90;99.90;;;;;;5051733;28;20048;-77
2021/11/30 06:03:58;;;;;;;8.60;5.45;;;6.90;99.90;;;;;;5044828;28;20104;-78
2021/11/30 06:06:25;;;;;;;8.65;6.63;;;7.00;99.90;;;;;;5052078;28;20021;-77
2021/11/30 06:08:51;;;;;;;8.60;7.20;;;7.00;99.90;;;;;;5043291;28;20076;-77
2021/11/30 06:11:17;;;;;;;7.75;6.30;;;7.00;99.90;;;;;;5050801;28;20056;-77
2021/11/30 06:13:43;;;;;;;8.30;6.68;;;7.00;99.90;;;;;;5050154;28;20025;-77
2021/11/30 06:16:08;;;;;;;8.02;6.72;;;7.00;99.90;;;;;;5050592;28;20056;-77
2021/11/30 06:18:34;;;;;;;9.60;7.43;;;7.10;99.90;;;;;;5046900;28;20063;-77
2021/11/30 06:20:59;;;;;;;12.75;8.95;;;7.10;99.90;;;;;;5066761;23;20083;-78
2021/11/30 06:23:25;;;;;;;13.55;9.75;;;7.10;99.90;;;;;;5070485;28;20027;-78
2021/11/30 06:25:50;;;;;;;14.65;10.13;;;7.20;99.90;;;;;;5084147;28;20107;-78
2021/11/30 06:28:16;;;;;;;14.68;10.68;;;7.20;99.90;;;;;;5071742;28;20046;-77
2021/11/30 06:30:42;;;;;;;14.18;10.70;;;7.20;99.90;;;;;;5069565;28;20471;-77
2021/11/30 06:33:08;;;;;;;13.60;10.93;;;7.20;99.90;;;;;;5059971;28;20033;-78
2021/11/30 06:35:36;;;;;;;18.25;13.48;;;7.30;99.90;;;;;;5059134;28;20021;-77
2021/11/30 06:38:02;;;;;;;18.88;13.90;;;7.30;99.90;;;;;;5076376;28;20064;-77
2021/11/30 06:40:27;;;;;;;18.23;13.52;;;7.40;99.90;;;;;;5062051;28;20124;-76
2021/11/30 06:42:53;;;;;;;17.10;12.57;;;7.40;99.90;;;;;;5067822;28;20028;-78
2021/11/30 06:45:19;;;;;;;18.77;13.80;;;7.50;99.90;;;;;;5071285;22;20054;-91
2021/11/30 06:47:44;;;;;;;22.85;16.02;;;7.50;99.90;;;;;;5049449;28;20493;-87
2021/11/30 06:50:10;;;;;;;19.20;14.48;;;7.60;99.90;;;;;;5033578;28;20026;-88
2021/11/30 06:52:39;;;;;;;19.48;15.13;;;7.60;99.90;;;;;;5025488;28;20029;-91
2021/11/30 06:55:06;;;;;;;20.58;14.48;;;7.70;99.90;;;;;;5050996;28;20111;-89
2021/11/30 06:57:31;;;;;;;22.52;15.95;;;7.70;99.90;;;;;;5031610;28;20033;-88
2021/11/30 07:00:02;;;;;;;24.17;16.52;;;7.80;99.90;;;;;;5022932;28;20043;-88
2021/11/30 07:02:27;;;;;;;22.92;14.93;;;7.90;99.90;;;;;;5023421;28;20033;-86
2021/11/30 07:04:55;;;;;;;21.55;15.70;;;7.90;99.90;;;;;;5029807;28;20021;-88
2021/11/30 07:10:06;;;;;;;24.98;16.30;;;7.90;99.90;;;;;;5018007;28;20056;-85
2021/11/30 07:15:08;;;;;;;26.83;16.38;;;8.00;99.90;;;;;;5025428;28;20033;-87
2021/11/30 07:17:35;;;;;;;24.95;16.63;;;8.00;99.90;;;;;;5028513;28;20033;-85
2021/11/30 07:20:02;;;;;;;25.73;16.13;;;8.10;99.90;;;;;;5019636;28;20025;-85
2021/11/30 07:22:28;;;;;;;28.13;17.48;;;8.10;99.90;;;;;;5015132;28;20471;-84
2021/11/30 07:24:54;;;;;;;23.25;15.25;;;8.10;99.90;;;;;;5017626;28;20179;-85
2021/11/30 07:27:19;;;;;;;23.58;16.05;;;8.10;99.90;;;;;;5022219;28;20485;-83
2021/11/30 07:29:45;;;;;;;23.73;14.85;;;8.10;99.90;;;;;;5027201;28;20471;-84
2021/11/30 07:32:10;;;;;;;27.58;15.48;;;8.20;99.90;;;;;;5017779;28;20037;-85
2021/11/30 07:34:37;;;;;;;26.17;15.05;;;8.20;99.90;;;;;;5030209;28;20025;-84
2021/11/30 07:37:04;;;;;;;22.35;13.32;;;8.20;99.90;;;;;;5017646;28;20475;-84
2021/11/30 07:39:29;;;;;;;23.25;13.70;;;8.20;99.90;;;;;;5015480;28;20038;-84
2021/11/30 07:41:55;;;;;;;30.08;17.17;;;8.30;99.90;;;;;;5019995;28;20037;-84
2021/11/30 07:44:20;;;;;;;25.05;15.50;;;8.30;99.90;;;;;;5021156;28;20037;-85
2021/11/30 07:46:46;;;;;;;24.88;14.73;;;8.30;99.90;;;;;;5029753;28;20120;-84
2021/11/30 07:49:12;;;;;;;24.77;14.98;;;8.40;99.90;;;;;;5024417;28;20037;-82
2021/11/30 07:51:39;;;;;;;23.08;13.45;;;8.40;99.90;;;;;;5031099;28;20017;-81
2021/11/30 07:54:05;;;;;;;19.75;10.88;;;8.40;99.90;;;;;;5015176;28;20034;-83
2021/11/30 07:56:32;;;;;;;22.50;12.75;;;8.40;99.90;;;;;;5022451;28;20029;-80
2021/11/30 07:58:58;;;;;;;24.70;12.93;;;8.50;99.90;;;;;;5030831;28;20021;-84
2021/11/30 08:01:24;;;;;;;21.25;11.48;;;8.50;99.90;;;;;;5018809;28;20052;-85
2021/11/30 08:03:50;;;;;;;20.42;12.20;;;8.50;99.90;;;;;;5018612;28;20057;-84
2021/11/30 08:06:15;;;;;;;21.95;12.80;;;8.50;99.90;;;;;;5029006;28;20024;-86
2021/11/30 08:08:41;;;;;;;18.20;11.07;;;8.50;99.90;;;;;;5023211;28;20029;-84
2021/11/30 08:11:08;;;;;;;19.38;12.20;;;8.60;99.90;;;;;;5017570;28;20476;-85
2021/11/30 08:13:34;;;;;;;21.98;11.27;;;8.60;99.90;;;;;;5031598;28;20022;-84
2021/11/30 08:15:59;;;;;;;23.23;11.73;;;8.60;99.90;;;;;;5023136;28;20041;-85
2021/11/30 08:18:26;;;;;;;17.88;9.85;;;8.60;99.90;;;;;;5023907;28;20053;-85
2021/11/30 08:20:51;;;;;;;20.98;10.70;;;8.60;99.90;;;;;;5020194;28;20056;-86
2021/11/30 08:23:17;;;;;;;17.88;9.45;;;8.70;99.90;;;;;;5026874;28;20072;-84
2021/11/30 08:25:42;;;;;;;18.55;9.27;;;8.70;99.90;;;;;;5031181;28;20025;-85
2021/11/30 08:28:09;;;;;;;16.40;8.82;;;8.70;99.90;;;;;;5019405;28;20029;-84
2021/11/30 08:30:34;;;;;;;17.98;9.15;;;8.70;99.90;;;;;;5022688;28;20509;-89
2021/11/30 08:33:00;;;;;;;11.93;7.90;;;8.70;99.90;;;;;;5024557;28;20038;-85
2021/11/30 08:35:26;;;;;;;19.42;9.38;;;8.80;99.90;;;;;;5017257;28;20037;-89
2021/11/30 08:37:51;;;;;;;15.15;8.57;;;8.70;99.90;;;;;;5028052;28;21359;-87
2021/11/30 08:40:17;;;;;;;20.17;10.00;;;8.80;99.90;;;;;;5023366;28;20033;-86
2021/11/30 08:42:43;;;;;;;15.73;9.30;;;8.80;99.90;;;;;;5021310;28;20029;-82
2021/11/30 08:45:10;;;;;;;20.23;10.98;;;8.80;99.90;;;;;;5026866;28;20495;-84
2021/11/30 08:47:37;;;;;;;19.67;10.98;;;8.80;99.90;;;;;;5021772;28;20022;-85
2021/11/30 08:50:14;;;;;;;17.27;10.05;;;8.90;99.90;;;;;;5038447;28;20045;-89
2021/11/30 08:52:41;;;;;;;18.70;10.27;;;8.90;99.90;;;;;;5016029;28;20084;-89
2021/11/30 08:55:08;;;;;;;23.17;11.32;;;8.90;99.90;;;;;;5029659;28;20548;-88
2021/11/30 08:57:34;;;;;;;19.00;10.73;;;8.90;99.90;;;;;;5030100;28;20458;-84
2021/11/30 09:00:00;;;;;;;20.02;10.00;;;9.00;99.90;;;;;;5021274;28;20391;-87
2021/11/30 09:02:26;;;;;;;26.25;10.15;;;9.00;99.90;;;;;;5017044;28;20037;-83
2021/11/30 09:04:52;;;;;;;16.50;8.48;;;9.00;99.90;;;;;;5020779;28;20037;-85
2021/11/30 09:07:18;;;;;;;24.90;10.95;;;9.00;99.90;;;;;;5015090;28;20032;-84
2021/11/30 09:09:46;;;;;;;20.77;10.02;;;9.00;99.90;;;;;;5015827;28;20029;-83
2021/11/30 09:12:12;;;;;;;16.58;9.10;;;9.00;99.90;;;;;;5020043;28;20029;-85
2021/11/30 09:14:41;;;;;;;20.98;9.18;;;9.00;99.90;;;;;;5017746;28;20029;-84
2021/11/30 09:17:07;;;;;;;23.60;9.30;;;9.00;99.90;;;;;;5016825;28;20037;-82
2021/11/30 09:19:33;;;;;;;13.70;8.07;;;9.00;99.90;;;;;;5017700;28;20361;-84
2021/11/30 09:21:58;;;;;;;12.40;6.63;;;9.00;99.90;;;;;;5023053;28;20037;-84
2021/11/30 09:24:24;;;;;;;21.75;9.02;;;9.10;99.90;;;;;;5029314;28;20438;-83
2021/11/30 09:26:51;;;;;;;14.65;8.13;;;9.10;99.90;;;;;;5017452;28;20022;-83
2021/11/30 09:29:17;;;;;;;16.52;7.70;;;9.10;99.90;;;;;;5019786;28;20022;-81
2021/11/30 09:31:43;;;;;;;19.00;8.07;;;9.10;99.90;;;;;;5021230;28;20037;-81
2021/11/30 09:34:08;;;;;;;16.27;7.72;;;9.10;99.90;;;;;;5032080;28;20057;-82
2021/11/30 09:36:34;;;;;;;19.00;8.57;;;9.20;99.90;;;;;;5024472;28;20144;-81
2021/11/30 09:39:02;;;;;;;15.40;7.78;;;9.20;99.90;;;;;;5028969;28;20117;-81
2021/11/30 09:41:28;;;;;;;17.50;8.02;;;9.20;99.90;;;;;;5024528;28;20025;-81
2021/11/30 09:43:54;;;;;;;12.77;8.25;;;9.30;99.90;;;;;;5031669;28;20021;-81
2021/11/30 09:46:20;;;;;;;13.35;6.50;;;9.20;99.90;;;;;;5020106;28;20492;-80
2021/11/30 09:48:50;;;;;;;15.10;6.90;;;9.20;99.90;;;;;;5015568;28;20549;-81
2021/11/30 09:51:16;;;;;;;18.77;8.15;;;9.30;99.90;;;;;;5017075;28;20033;-83
2021/11/30 09:53:42;;;;;;;18.67;7.88;;;9.20;99.90;;;;;;5029325;28;20501;-83
2021/11/30 09:56:08;;;;;;;14.23;7.32;;;9.30;99.90;;;;;;5029598;28;20546;-83
2021/11/30 09:58:33;;;;;;;12.95;6.18;;;9.20;99.90;;;;;;5019755;28;20060;-81
2021/11/30 10:01:01;;;;;;;12.70;7.15;;;9.20;99.90;;;;;;5027897;28;20112;-82
2021/11/30 10:03:27;;;;;;;12.73;7.25;;;9.30;99.90;;;;;;5026281;28;20226;-82
2021/11/30 10:05:54;;;;;;;13.80;6.82;;;9.30;99.90;;;;;;5017601;28;20032;-82
2021/11/30 10:08:35;;;;;;;16.77;8.23;;;9.30;99.90;;;;;;5016183;28;20017;-82
2021/11/30 10:11:02;;;;;;;17.75;8.13;;;9.30;99.90;;;;;;5017168;28;20034;-81
2021/11/30 10:13:28;;;;;;;16.65;7.90;;;9.30;99.90;;;;;;5023409;28;20029;-81
2021/11/30 10:16:01;;;;;;;19.63;7.97;;;9.40;99.90;;;;;;5015308;28;20080;-81
2021/11/30 10:18:34;;;;;;;16.60;8.07;;;9.40;99.90;;;;;;5018001;28;22261;-82
2021/11/30 10:21:06;;;;;;;18.73;9.38;;;9.40;99.90;;;;;;5017782;28;20026;-80
2021/11/30 10:24:01;;;;;;;24.17;11.80;;;9.40;99.90;;;;;;5035985;28;20053;-81
2021/11/30 10:26:41;;;;;;;20.65;9.10;;;9.40;99.90;;;;;;5014369;28;20029;-82
2021/11/30 10:29:12;;;;;;;16.50;8.23;;;9.40;99.90;;;;;;5050777;28;20566;-81
2021/11/30 10:31:41;;;;;;;19.67;9.23;;;9.40;99.90;;;;;;5032764;28;20022;-80
2021/11/30 10:34:15;;;;;;;14.13;7.15;;;9.40;99.90;;;;;;5025375;28;20041;-80
2021/11/30 10:36:58;;;;;;;17.60;9.93;;;9.40;99.90;;;;;;5016465;28;20029;-80
2021/11/30 10:39:30;;;;;;;23.92;10.18;;;9.50;99.90;;;;;;5017588;28;20125;-79
2021/11/30 10:42:18;;;;;;;22.05;9.13;;;9.40;99.90;;;;;;5018140;28;20025;-80
2021/11/30 10:44:46;;;;;;;21.30;8.32;;;9.50;99.90;;;;;;5017635;28;20045;-79
2021/11/30 10:47:18;;;;;;;17.42;9.00;;;9.50;99.90;;;;;;5031459;28;20021;-80
2021/11/30 10:49:51;;;;;;;18.95;9.13;;;9.50;99.90;;;;;;5015908;28;20072;-78
2021/11/30 10:52:30;;;;;;;20.60;8.77;;;9.50;99.90;;;;;;5013535;28;20038;-80
2021/11/30 10:55:06;;;;;;;21.73;9.00;;;9.50;99.90;;;;;;5018481;28;20083;-79
2021/11/30 10:57:32;;;;;;;20.95;7.78;;;9.50;99.90;;;;;;5024169;28;20376;-78
2021/11/30 11:00:11;;;;;;;21.80;7.18;;;9.50;99.90;;;;;;5028822;28;20052;-78
2021/11/30 11:03:07;;;;;;;12.05;5.70;;;9.50;99.90;;;;;;5020934;28;20448;-79
2021/11/30 11:05:45;;;;;;;20.70;6.22;;;9.50;99.90;;;;;;5017351;28;20091;-79
2021/11/30 11:08:14;;;;;;;20.02;6.95;;;9.50;99.90;;;;;;5027150;28;20033;-79
2021/11/30 11:10:49;;;;;;;19.42;6.68;;;9.60;99.90;;;;;;5023786;28;20038;-80
2021/11/30 11:13:29;;;;;;;15.18;5.60;;;9.60;99.90;;;;;;5026673;28;20036;-78
2021/11/30 11:16:03;;;;;;;21.52;6.88;;;9.60;99.90;;;;;;5023767;28;20109;-79
2021/11/30 11:18:36;;;;;;;19.25;7.20;;;9.60;99.90;;;;;;5027039;28;20119;-78
2021/11/30 11:21:18;;;;;;;22.23;7.43;;;9.60;99.90;;;;;;5019678;28;20053;-79
2021/11/30 11:23:54;;;;;;;20.77;7.78;;;9.70;99.90;;;;;;5021442;28;20022;-79
2021/11/30 11:26:33;;;;;;;19.20;6.90;;;9.70;99.90;;;;;;5017010;28;20159;-79
2021/11/30 11:29:01;;;;;;;22.98;7.18;;;9.70;99.90;;;;;;5011738;28;20132;-79
2021/11/30 11:31:28;;;;;;;18.35;6.75;;;9.60;99.90;;;;;;5020177;28;20021;-80
2021/11/30 11:33:56;;;;;;;19.95;7.68;;;9.70;99.90;;;;;;5021166;28;20038;-81
2021/11/30 11:36:22;;;;;;;16.00;6.68;;;9.70;99.90;;;;;;5023836;28;20030;-83
2021/11/30 11:38:47;;;;;;;12.52;6.18;;;9.70;99.90;;;;;;5036215;28;20487;-81
2021/11/30 11:41:14;;;;;;;14.73;6.50;;;9.60;99.90;;;;;;5036788;28;20109;-83
2021/11/30 11:43:40;;;;;;;12.30;5.57;;;9.60;99.90;;;;;;5014553;28;20050;-85
2021/11/30 11:46:12;;;;;;;17.13;6.53;;;9.60;99.90;;;;;;5030140;28;20049;-84
2021/11/30 11:48:39;;;;;;;16.20;6.57;;;9.60;99.90;;;;;;5018359;28;20018;-84
2021/11/30 11:51:06;;;;;;;15.75;6.22;;;9.60;99.90;;;;;;5014978;28;20451;-83
2021/11/30 11:53:35;;;;;;;18.25;7.18;;;9.60;99.90;;;;;;5019976;28;20039;-84
2021/11/30 11:56:19;;;;;;;14.70;6.25;;;9.60;99.90;;;;;;5027222;28;20033;-83
2021/11/30 11:58:47;;;;;;;20.05;6.93;;;9.60;99.90;;;;;;5032227;28;20033;-83
2021/11/30 12:01:24;;;;;;;14.68;5.75;;;9.60;99.90;;;;;;5031938;28;20071;-83
2021/11/30 12:03:55;;;;;;;15.25;6.72;;;9.60;99.90;;;;;;5032720;28;20029;-81
2021/11/30 12:06:25;;;;;;;19.52;7.97;;;9.70;99.90;;;;;;5018984;28;20052;-82
2021/11/30 12:09:07;;;;;;;18.88;7.35;;;9.70;99.90;;;;;;5021446;28;20071;-84
2021/11/30 12:11:42;;;;;;;16.70;7.43;;;9.70;99.90;;;;;;5027975;28;20360;-82
2021/11/30 12:14:23;;;;;;;19.02;6.90;;;9.60;99.90;;;;;;5023478;28;20029;-84
2021/11/30 12:17:07;;;;;;;19.15;6.55;;;9.70;99.90;;;;;;5033287;28;20112;-88
2021/11/30 12:19:39;;;;;;;18.42;7.20;;;9.60;99.90;;;;;;5034559;28;20032;-85
2021/11/30 12:22:05;;;;;;;19.70;7.60;;;9.60;99.90;;;;;;5041299;28;20029;-88
2021/11/30 12:24:39;;;;;;;15.77;7.22;;;9.70;99.90;;;;;;5023434;28;20048;-88
2021/11/30 12:27:17;;;;;;;14.30;6.45;;;9.70;99.90;;;;;;5032900;28;20026;-90
2021/11/30 12:29:44;;;;;;;9.27;5.38;;;9.70;99.90;;;;;;5030825;28;20052;-92
2021/11/30 12:32:20;;;;;;;15.52;5.93;;;9.70;99.90;;;;;;5028719;28;20505;-94
2021/11/30 12:34:49;;;;;;;10.57;5.13;;;9.70;99.90;;;;;;5041639;28;20068;-93
2021/11/30 12:37:27;;;;;;;9.07;5.22;;;9.70;99.90;;;;;;5024090;28;20049;-92
2021/11/30 12:40:11;;;;;;;15.18;5.28;;;9.70;99.90;;;;;;5022402;28;20028;-87
2021/11/30 12:42:40;;;;;;;11.57;6.13;;;9.70;99.90;;;;;;5020259;28;20398;-84
2021/11/30 12:45:08;;;;;;;13.20;6.30;;;9.80;99.90;;;;;;5026991;28;20045;-83
2021/11/30 12:47:34;;;;;;;13.65;6.90;;;9.80;99.90;;;;;;5025748;28;20014;-84
2021/11/30 12:49:59;;;;;;;15.45;7.03;;;9.80;99.90;;;;;;5028288;28;20029;-84
2021/11/30 12:52:31;;;;;;;14.70;6.35;;;9.80;99.90;;;;;;5026482;28;20033;-85
2021/11/30 12:55:00;;;;;;;17.17;7.40;;;9.80;99.90;;;;;;5030565;28;20114;-84
2021/11/30 12:57:28;;;;;;;17.80;7.30;;;9.80;99.90;;;;;;5024212;28;20029;-85
2021/11/30 13:00:25;;;;;;;13.63;6.45;;;9.80;99.90;;;;;;5027342;28;20057;-84
2021/11/30 13:02:53;;;;;;;12.80;5.85;;;9.80;99.90;;;;;;5019341;28;20029;-84
2021/11/30 13:05:25;;;;;;;19.58;7.65;;;9.80;99.90;;;;;;5025843;28;20018;-82
2021/11/30 13:07:54;;;;;;;15.05;6.53;;;9.80;99.90;;;;;;5024601;28;20022;-81